sensor_id;sensor_type;location;lat;lon;timestamp;P1;durP1;ratioP1;P2;durP2;ratioP2
52102;SDS011;38101;53.126;6.878;2023-01-01T00:01:36;26.58;;;17.17;;
52102;SDS011;38101;53.126;6.878;2023-01-01T00:04:05;22.98;;;17.23;;
52102;SDS011;38101;53.126;6.878;2023-01-01T00:06:34;22.83;;;17.15;;
52102;SDS011;38101;53.126;6.878;2023-01-01T00:09:00;23.27;;;16.23;;
52102;SDS011;38101;53.126;6.878;2023-01-01T00:11:44;23.88;;;15.10;;
52102;SDS011;38101;53.126;6.878;2023-01-01T00:14:10;22.92;;;15.20;;
52102;SDS011;38101;53.126;6.878;2023-01-01T00:16:36;22.95;;;15.68;;
52102;SDS011;38101;53.126;6.878;2023-01-01T00:19:01;21.13;;;15.27;;
52102;SDS011;38101;53.126;6.878;2023-01-01T00:21:27;22.80;;;13.85;;
52102;SDS011;38101;53.126;6.878;2023-01-01T00:23:53;22.25;;;14.45;;
52102;SDS011;38101;53.126;6.878;2023-01-01T00:26:18;30.00;;;19.35;;
52102;SDS011;38101;53.126;6.878;2023-01-01T00:28:44;22.17;;;13.95;;
52102;SDS011;38101;53.126;6.878;2023-01-01T00:31:14;26.13;;;16.40;;
52102;SDS011;38101;53.126;6.878;2023-01-01T00:33:42;22.17;;;13.55;;
52102;SDS011;38101;53.126;6.878;2023-01-01T00:36:09;26.17;;;17.38;;
52102;SDS011;38101;53.126;6.878;2023-01-01T00:38:40;25.95;;;16.88;;
52102;SDS011;38101;53.126;6.878;2023-01-01T00:41:06;22.55;;;16.10;;
52102;SDS011;38101;53.126;6.878;2023-01-01T00:43:32;26.30;;;17.40;;
52102;SDS011;38101;53.126;6.878;2023-01-01T00:45:58;23.98;;;17.98;;
52102;SDS011;38101;53.126;6.878;2023-01-01T00:48:24;30.35;;;21.83;;
52102;SDS011;38101;53.126;6.878;2023-01-01T00:50:50;28.67;;;22.60;;
52102;SDS011;38101;53.126;6.878;2023-01-01T00:53:16;34.50;;;24.50;;
52102;SDS011;38101;53.126;6.878;2023-01-01T00:55:42;31.83;;;24.55;;
52102;SDS011;38101;53.126;6.878;2023-01-01T00:58:08;48.70;;;35.72;;
52102;SDS011;38101;53.126;6.878;2023-01-01T01:00:34;43.38;;;32.33;;
52102;SDS011;38101;53.126;6.878;2023-01-01T01:03:00;35.17;;;24.73;;
52102;SDS011;38101;53.126;6.878;2023-01-01T01:05:26;30.60;;;24.02;;
52102;SDS011;38101;53.126;6.878;2023-01-01T01:07:52;36.40;;;23.27;;
52102;SDS011;38101;53.126;6.878;2023-01-01T01:10:17;30.52;;;23.80;;
52102;SDS011;38101;53.126;6.878;2023-01-01T01:12:45;31.05;;;23.65;;
52102;SDS011;38101;53.126;6.878;2023-01-01T01:15:11;31.52;;;24.35;;
52102;SDS011;38101;53.126;6.878;2023-01-01T01:17:38;32.05;;;23.48;;
52102;SDS011;38101;53.126;6.878;2023-01-01T01:20:04;30.73;;;23.38;;
52102;SDS011;38101;53.126;6.878;2023-01-01T01:22:30;29.83;;;22.08;;
52102;SDS011;38101;53.126;6.878;2023-01-01T01:24:58;29.17;;;22.08;;
52102;SDS011;38101;53.126;6.878;2023-01-01T01:27:24;32.10;;;22.67;;
52102;SDS011;38101;53.126;6.878;2023-01-01T01:29:51;27.52;;;21.63;;
52102;SDS011;38101;53.126;6.878;2023-01-01T01:32:17;30.58;;;22.98;;
52102;SDS011;38101;53.126;6.878;2023-01-01T01:34:43;30.02;;;23.35;;
52102;SDS011;38101;53.126;6.878;2023-01-01T01:37:09;30.23;;;22.65;;
52102;SDS011;38101;53.126;6.878;2023-01-01T01:39:36;30.42;;;24.15;;
52102;SDS011;38101;53.126;6.878;2023-01-01T01:42:02;32.60;;;23.63;;
52102;SDS011;38101;53.126;6.878;2023-01-01T01:47:41;32.30;;;24.45;;
52102;SDS011;38101;53.126;6.878;2023-01-01T01:50:12;28.30;;;23.52;;
52102;SDS011;38101;53.126;6.878;2023-01-01T01:52:46;31.77;;;23.83;;
52102;SDS011;38101;53.126;6.878;2023-01-01T01:55:21;29.20;;;23.90;;
52102;SDS011;38101;53.126;6.878;2023-01-01T01:57:47;31.85;;;23.52;;
52102;SDS011;38101;53.126;6.878;2023-01-01T02:00:13;34.30;;;24.88;;
52102;SDS011;38101;53.126;6.878;2023-01-01T02:02:41;38.17;;;25.30;;
52102;SDS011;38101;53.126;6.878;2023-01-01T02:05:17;32.10;;;24.27;;
52102;SDS011;38101;53.126;6.878;2023-01-01T02:07:44;29.95;;;24.20;;
52102;SDS011;38101;53.126;6.878;2023-01-01T02:10:10;27.00;;;22.30;;
52102;SDS011;38101;53.126;6.878;2023-01-01T02:12:36;27.50;;;21.95;;
52102;SDS011;38101;53.126;6.878;2023-01-01T02:15:02;29.77;;;22.58;;
52102;SDS011;38101;53.126;6.878;2023-01-01T02:20:58;28.25;;;22.40;;
52102;SDS011;38101;53.126;6.878;2023-01-01T02:26:37;30.40;;;22.27;;
52102;SDS011;38101;53.126;6.878;2023-01-01T02:31:59;27.10;;;19.98;;
52102;SDS011;38101;53.126;6.878;2023-01-01T02:34:29;26.98;;;20.90;;
52102;SDS011;38101;53.126;6.878;2023-01-01T02:36:59;23.23;;;19.17;;
52102;SDS011;38101;53.126;6.878;2023-01-01T02:39:28;28.15;;;19.65;;
52102;SDS011;38101;53.126;6.878;2023-01-01T02:41:56;26.40;;;18.45;;
52102;SDS011;38101;53.126;6.878;2023-01-01T02:44:25;26.77;;;17.08;;
52102;SDS011;38101;53.126;6.878;2023-01-01T02:46:52;24.10;;;16.85;;
52102;SDS011;38101;53.126;6.878;2023-01-01T02:49:18;24.13;;;17.10;;
52102;SDS011;38101;53.126;6.878;2023-01-01T02:59:15;20.77;;;14.05;;
52102;SDS011;38101;53.126;6.878;2023-01-01T03:02:09;17.17;;;12.65;;
52102;SDS011;38101;53.126;6.878;2023-01-01T03:05:02;18.95;;;13.07;;
52102;SDS011;38101;53.126;6.878;2023-01-01T03:07:40;16.13;;;12.25;;
52102;SDS011;38101;53.126;6.878;2023-01-01T03:10:21;19.00;;;11.48;;
52102;SDS011;38101;53.126;6.878;2023-01-01T03:15:50;19.63;;;11.23;;
52102;SDS011;38101;53.126;6.878;2023-01-01T03:21:06;14.63;;;9.18;;
52102;SDS011;38101;53.126;6.878;2023-01-01T03:23:35;15.75;;;9.60;;
52102;SDS011;38101;53.126;6.878;2023-01-01T03:26:04;14.98;;;8.63;;
52102;SDS011;38101;53.126;6.878;2023-01-01T03:28:34;12.77;;;8.40;;
52102;SDS011;38101;53.126;6.878;2023-01-01T03:31:07;14.88;;;8.07;;
52102;SDS011;38101;53.126;6.878;2023-01-01T03:33:34;12.73;;;7.78;;
52102;SDS011;38101;53.126;6.878;2023-01-01T03:36:08;11.93;;;7.75;;
52102;SDS011;38101;53.126;6.878;2023-01-01T03:38:40;13.35;;;6.85;;
52102;SDS011;38101;53.126;6.878;2023-01-01T03:41:10;11.43;;;6.90;;
52102;SDS011;38101;53.126;6.878;2023-01-01T03:43:43;13.23;;;6.40;;
52102;SDS011;38101;53.126;6.878;2023-01-01T03:46:16;13.70;;;5.93;;
52102;SDS011;38101;53.126;6.878;2023-01-01T03:48:45;10.95;;;5.70;;
52102;SDS011;38101;53.126;6.878;2023-01-01T03:56:51;9.30;;;5.03;;
52102;SDS011;38101;53.126;6.878;2023-01-01T03:59:22;9.77;;;4.95;;
52102;SDS011;38101;53.126;6.878;2023-01-01T04:01:56;13.98;;;5.53;;
52102;SDS011;38101;53.126;6.878;2023-01-01T04:04:23;12.40;;;5.60;;
52102;SDS011;38101;53.126;6.878;2023-01-01T04:06:51;11.90;;;5.82;;
52102;SDS011;38101;53.126;6.878;2023-01-01T04:09:18;10.30;;;5.50;;
52102;SDS011;38101;53.126;6.878;2023-01-01T04:11:49;12.65;;;5.35;;
52102;SDS011;38101;53.126;6.878;2023-01-01T04:14:33;14.60;;;5.53;;
52102;SDS011;38101;53.126;6.878;2023-01-01T04:17:02;11.23;;;5.72;;
52102;SDS011;38101;53.126;6.878;2023-01-01T04:19:28;11.15;;;5.65;;
52102;SDS011;38101;53.126;6.878;2023-01-01T04:21:55;12.65;;;6.20;;
52102;SDS011;38101;53.126;6.878;2023-01-01T04:24:21;12.07;;;6.47;;
52102;SDS011;38101;53.126;6.878;2023-01-01T04:26:47;13.27;;;6.47;;
52102;SDS011;38101;53.126;6.878;2023-01-01T04:29:17;13.52;;;6.40;;
52102;SDS011;38101;53.126;6.878;2023-01-01T04:31:43;11.57;;;6.13;;
52102;SDS011;38101;53.126;6.878;2023-01-01T04:34:09;11.82;;;5.72;;
52102;SDS011;38101;53.126;6.878;2023-01-01T04:36:35;13.35;;;5.97;;
52102;SDS011;38101;53.126;6.878;2023-01-01T04:39:00;13.57;;;6.03;;
52102;SDS011;38101;53.126;6.878;2023-01-01T04:41:27;13.32;;;5.75;;
52102;SDS011;38101;53.126;6.878;2023-01-01T04:43:52;15.20;;;5.93;;
52102;SDS011;38101;53.126;6.878;2023-01-01T04:46:18;12.70;;;5.53;;
52102;SDS011;38101;53.126;6.878;2023-01-01T04:48:45;9.80;;;5.43;;
52102;SDS011;38101;53.126;6.878;2023-01-01T04:51:11;10.85;;;5.57;;
52102;SDS011;38101;53.126;6.878;2023-01-01T04:53:37;10.10;;;5.50;;
52102;SDS011;38101;53.126;6.878;2023-01-01T04:56:04;8.55;;;5.22;;
52102;SDS011;38101;53.126;6.878;2023-01-01T04:58:37;10.80;;;5.68;;
52102;SDS011;38101;53.126;6.878;2023-01-01T05:01:04;10.68;;;5.10;;
52102;SDS011;38101;53.126;6.878;2023-01-01T05:03:31;9.30;;;5.05;;
52102;SDS011;38101;53.126;6.878;2023-01-01T05:06:04;10.30;;;4.65;;
52102;SDS011;38101;53.126;6.878;2023-01-01T05:10:58;10.00;;;4.30;;
52102;SDS011;38101;53.126;6.878;2023-01-01T05:13:40;13.07;;;4.60;;
52102;SDS011;38101;53.126;6.878;2023-01-01T05:16:09;7.60;;;3.63;;
52102;SDS011;38101;53.126;6.878;2023-01-01T05:18:37;10.95;;;3.70;;
52102;SDS011;38101;53.126;6.878;2023-01-01T05:21:04;8.55;;;3.80;;
52102;SDS011;38101;53.126;6.878;2023-01-01T05:23:31;8.07;;;3.80;;
52102;SDS011;38101;53.126;6.878;2023-01-01T05:25:58;9.40;;;3.72;;
52102;SDS011;38101;53.126;6.878;2023-01-01T05:28:24;7.13;;;3.25;;
52102;SDS011;38101;53.126;6.878;2023-01-01T05:30:50;6.82;;;3.30;;
52102;SDS011;38101;53.126;6.878;2023-01-01T05:33:16;9.55;;;3.83;;
52102;SDS011;38101;53.126;6.878;2023-01-01T05:35:42;8.85;;;3.65;;
52102;SDS011;38101;53.126;6.878;2023-01-01T05:38:08;7.57;;;3.42;;
52102;SDS011;38101;53.126;6.878;2023-01-01T05:40:33;8.20;;;3.20;;
52102;SDS011;38101;53.126;6.878;2023-01-01T05:43:02;9.98;;;3.50;;
52102;SDS011;38101;53.126;6.878;2023-01-01T05:45:27;5.75;;;2.97;;
52102;SDS011;38101;53.126;6.878;2023-01-01T05:47:53;10.93;;;3.63;;
52102;SDS011;38101;53.126;6.878;2023-01-01T05:50:20;8.30;;;2.83;;
52102;SDS011;38101;53.126;6.878;2023-01-01T05:52:46;9.70;;;3.40;;
52102;SDS011;38101;53.126;6.878;2023-01-01T05:55:11;6.97;;;2.95;;
52102;SDS011;38101;53.126;6.878;2023-01-01T05:57:37;6.60;;;2.80;;
52102;SDS011;38101;53.126;6.878;2023-01-01T06:00:03;8.95;;;3.10;;
52102;SDS011;38101;53.126;6.878;2023-01-01T06:02:29;6.03;;;2.75;;
52102;SDS011;38101;53.126;6.878;2023-01-01T06:04:55;5.88;;;2.30;;
52102;SDS011;38101;53.126;6.878;2023-01-01T06:07:21;8.48;;;2.60;;
52102;SDS011;38101;53.126;6.878;2023-01-01T06:09:46;6.72;;;2.72;;
52102;SDS011;38101;53.126;6.878;2023-01-01T06:12:12;7.22;;;2.60;;
52102;SDS011;38101;53.126;6.878;2023-01-01T06:14:38;6.55;;;2.60;;
52102;SDS011;38101;53.126;6.878;2023-01-01T06:17:03;5.80;;;2.65;;
52102;SDS011;38101;53.126;6.878;2023-01-01T06:19:29;7.38;;;2.85;;
52102;SDS011;38101;53.126;6.878;2023-01-01T06:21:55;5.60;;;2.38;;
52102;SDS011;38101;53.126;6.878;2023-01-01T06:24:20;5.90;;;2.60;;
52102;SDS011;38101;53.126;6.878;2023-01-01T06:26:46;5.30;;;2.45;;
52102;SDS011;38101;53.126;6.878;2023-01-01T06:29:11;7.32;;;2.75;;
52102;SDS011;38101;53.126;6.878;2023-01-01T06:31:37;6.25;;;2.50;;
52102;SDS011;38101;53.126;6.878;2023-01-01T06:34:03;7.35;;;2.53;;
52102;SDS011;38101;53.126;6.878;2023-01-01T06:36:28;4.78;;;2.08;;
52102;SDS011;38101;53.126;6.878;2023-01-01T06:38:55;4.75;;;2.20;;
52102;SDS011;38101;53.126;6.878;2023-01-01T06:41:23;5.63;;;2.00;;
52102;SDS011;38101;53.126;6.878;2023-01-01T06:43:49;4.45;;;2.10;;
52102;SDS011;38101;53.126;6.878;2023-01-01T06:48:43;5.28;;;1.70;;
52102;SDS011;38101;53.126;6.878;2023-01-01T06:51:10;7.38;;;2.03;;
52102;SDS011;38101;53.126;6.878;2023-01-01T06:53:38;5.70;;;1.70;;
52102;SDS011;38101;53.126;6.878;2023-01-01T06:56:04;4.50;;;1.92;;
52102;SDS011;38101;53.126;6.878;2023-01-01T06:58:30;3.75;;;1.75;;
52102;SDS011;38101;53.126;6.878;2023-01-01T07:01:06;4.30;;;1.63;;
52102;SDS011;38101;53.126;6.878;2023-01-01T07:03:38;5.70;;;2.00;;
52102;SDS011;38101;53.126;6.878;2023-01-01T07:06:04;6.88;;;2.08;;
52102;SDS011;38101;53.126;6.878;2023-01-01T07:08:30;7.00;;;1.80;;
52102;SDS011;38101;53.126;6.878;2023-01-01T07:10:56;4.90;;;1.95;;
52102;SDS011;38101;53.126;6.878;2023-01-01T07:13:23;5.10;;;1.92;;
52102;SDS011;38101;53.126;6.878;2023-01-01T07:15:49;8.25;;;2.15;;
52102;SDS011;38101;53.126;6.878;2023-01-01T07:18:15;4.97;;;1.80;;
52102;SDS011;38101;53.126;6.878;2023-01-01T07:20:40;5.32;;;2.08;;
52102;SDS011;38101;53.126;6.878;2023-01-01T07:23:07;6.82;;;2.00;;
52102;SDS011;38101;53.126;6.878;2023-01-01T07:25:35;3.75;;;2.10;;
52102;SDS011;38101;53.126;6.878;2023-01-01T07:28:01;6.30;;;1.83;;
52102;SDS011;38101;53.126;6.878;2023-01-01T07:30:26;8.23;;;2.30;;
52102;SDS011;38101;53.126;6.878;2023-01-01T07:32:55;8.93;;;2.60;;
52102;SDS011;38101;53.126;6.878;2023-01-01T07:35:21;6.60;;;1.92;;
52102;SDS011;38101;53.126;6.878;2023-01-01T07:37:47;8.00;;;2.35;;
52102;SDS011;38101;53.126;6.878;2023-01-01T07:40:12;7.80;;;2.40;;
52102;SDS011;38101;53.126;6.878;2023-01-01T07:42:38;8.60;;;2.50;;
52102;SDS011;38101;53.126;6.878;2023-01-01T07:45:04;5.65;;;2.47;;
52102;SDS011;38101;53.126;6.878;2023-01-01T07:47:30;6.45;;;1.95;;
52102;SDS011;38101;53.126;6.878;2023-01-01T07:49:56;9.18;;;2.42;;
52102;SDS011;38101;53.126;6.878;2023-01-01T07:52:22;8.25;;;2.70;;
52102;SDS011;38101;53.126;6.878;2023-01-01T07:54:48;6.65;;;2.22;;
52102;SDS011;38101;53.126;6.878;2023-01-01T07:57:14;7.40;;;2.85;;
52102;SDS011;38101;53.126;6.878;2023-01-01T07:59:40;6.60;;;2.50;;
52102;SDS011;38101;53.126;6.878;2023-01-01T08:02:05;9.43;;;2.53;;
52102;SDS011;38101;53.126;6.878;2023-01-01T08:04:31;8.25;;;2.97;;
52102;SDS011;38101;53.126;6.878;2023-01-01T08:06:57;9.35;;;3.08;;
52102;SDS011;38101;53.126;6.878;2023-01-01T08:09:22;8.15;;;2.58;;
52102;SDS011;38101;53.126;6.878;2023-01-01T08:11:48;6.25;;;2.88;;
52102;SDS011;38101;53.126;6.878;2023-01-01T08:14:16;9.85;;;2.50;;
52102;SDS011;38101;53.126;6.878;2023-01-01T08:16:42;9.30;;;2.85;;
52102;SDS011;38101;53.126;6.878;2023-01-01T08:19:08;8.18;;;2.72;;
52102;SDS011;38101;53.126;6.878;2023-01-01T08:21:33;7.93;;;2.58;;
52102;SDS011;38101;53.126;6.878;2023-01-01T08:23:59;10.02;;;3.10;;
52102;SDS011;38101;53.126;6.878;2023-01-01T08:26:26;8.88;;;2.55;;
52102;SDS011;38101;53.126;6.878;2023-01-01T08:28:56;6.55;;;2.70;;
52102;SDS011;38101;53.126;6.878;2023-01-01T08:31:23;8.85;;;2.60;;
52102;SDS011;38101;53.126;6.878;2023-01-01T08:33:49;6.63;;;2.85;;
52102;SDS011;38101;53.126;6.878;2023-01-01T08:36:15;8.43;;;2.95;;
52102;SDS011;38101;53.126;6.878;2023-01-01T08:38:41;8.10;;;2.60;;
52102;SDS011;38101;53.126;6.878;2023-01-01T08:41:08;7.97;;;3.10;;
52102;SDS011;38101;53.126;6.878;2023-01-01T08:43:33;10.65;;;3.50;;
52102;SDS011;38101;53.126;6.878;2023-01-01T08:45:59;9.77;;;2.88;;
52102;SDS011;38101;53.126;6.878;2023-01-01T08:48:25;9.90;;;3.00;;
52102;SDS011;38101;53.126;6.878;2023-01-01T08:50:54;9.73;;;2.85;;
52102;SDS011;38101;53.126;6.878;2023-01-01T08:53:21;10.05;;;2.67;;
52102;SDS011;38101;53.126;6.878;2023-01-01T08:56:00;7.40;;;2.95;;
52102;SDS011;38101;53.126;6.878;2023-01-01T08:58:30;12.20;;;3.42;;
52102;SDS011;38101;53.126;6.878;2023-01-01T09:00:56;8.30;;;2.88;;
52102;SDS011;38101;53.126;6.878;2023-01-01T09:03:23;9.65;;;2.97;;
52102;SDS011;38101;53.126;6.878;2023-01-01T09:05:50;11.07;;;3.22;;
52102;SDS011;38101;53.126;6.878;2023-01-01T09:08:15;10.38;;;3.13;;
52102;SDS011;38101;53.126;6.878;2023-01-01T09:10:42;11.30;;;3.08;;
52102;SDS011;38101;53.126;6.878;2023-01-01T09:13:08;10.32;;;2.80;;
52102;SDS011;38101;53.126;6.878;2023-01-01T09:15:35;14.88;;;3.60;;
52102;SDS011;38101;53.126;6.878;2023-01-01T09:18:01;8.60;;;3.15;;
52102;SDS011;38101;53.126;6.878;2023-01-01T09:20:27;8.68;;;2.90;;
52102;SDS011;38101;53.126;6.878;2023-01-01T09:22:53;9.63;;;3.28;;
52102;SDS011;38101;53.126;6.878;2023-01-01T09:25:18;9.10;;;3.00;;
52102;SDS011;38101;53.126;6.878;2023-01-01T09:27:44;15.20;;;3.17;;
52102;SDS011;38101;53.126;6.878;2023-01-01T09:30:10;13.25;;;3.67;;
52102;SDS011;38101;53.126;6.878;2023-01-01T09:32:37;10.07;;;3.20;;
52102;SDS011;38101;53.126;6.878;2023-01-01T09:35:03;12.95;;;3.42;;
52102;SDS011;38101;53.126;6.878;2023-01-01T09:37:29;15.98;;;3.55;;
52102;SDS011;38101;53.126;6.878;2023-01-01T09:39:55;11.30;;;3.00;;
52102;SDS011;38101;53.126;6.878;2023-01-01T09:42:30;10.88;;;3.70;;
52102;SDS011;38101;53.126;6.878;2023-01-01T09:48:05;10.45;;;3.17;;
52102;SDS011;38101;53.126;6.878;2023-01-01T09:50:39;9.98;;;2.80;;
52102;SDS011;38101;53.126;6.878;2023-01-01T09:53:12;8.70;;;3.38;;
52102;SDS011;38101;53.126;6.878;2023-01-01T09:55:52;9.40;;;2.95;;
52102;SDS011;38101;53.126;6.878;2023-01-01T09:58:28;10.82;;;3.25;;
52102;SDS011;38101;53.126;6.878;2023-01-01T10:01:08;10.30;;;2.97;;
52102;SDS011;38101;53.126;6.878;2023-01-01T10:04:17;11.82;;;3.38;;
52102;SDS011;38101;53.126;6.878;2023-01-01T10:06:55;12.07;;;2.80;;
52102;SDS011;38101;53.126;6.878;2023-01-01T10:23:00;9.25;;;3.22;;
52102;SDS011;38101;53.126;6.878;2023-01-01T10:25:40;10.70;;;3.17;;
52102;SDS011;38101;53.126;6.878;2023-01-01T10:28:11;10.45;;;3.03;;
52102;SDS011;38101;53.126;6.878;2023-01-01T10:30:43;12.00;;;3.38;;
52102;SDS011;38101;53.126;6.878;2023-01-01T10:33:13;7.43;;;2.63;;
52102;SDS011;38101;53.126;6.878;2023-01-01T10:35:43;8.20;;;2.50;;
52102;SDS011;38101;53.126;6.878;2023-01-01T10:38:20;12.30;;;3.28;;
52102;SDS011;38101;53.126;6.878;2023-01-01T10:40:48;10.68;;;2.97;;
52102;SDS011;38101;53.126;6.878;2023-01-01T10:43:16;11.43;;;3.20;;
52102;SDS011;38101;53.126;6.878;2023-01-01T10:45:43;12.90;;;2.95;;
52102;SDS011;38101;53.126;6.878;2023-01-01T10:48:16;9.98;;;2.90;;
52102;SDS011;38101;53.126;6.878;2023-01-01T10:50:56;12.70;;;3.00;;
52102;SDS011;38101;53.126;6.878;2023-01-01T10:53:41;8.63;;;2.88;;
52102;SDS011;38101;53.126;6.878;2023-01-01T10:56:14;8.98;;;3.00;;
52102;SDS011;38101;53.126;6.878;2023-01-01T11:01:18;10.02;;;3.17;;
52102;SDS011;38101;53.126;6.878;2023-01-01T11:06:34;10.07;;;3.17;;
52102;SDS011;38101;53.126;6.878;2023-01-01T11:09:02;12.48;;;2.88;;
52102;SDS011;38101;53.126;6.878;2023-01-01T11:11:44;7.72;;;2.42;;
52102;SDS011;38101;53.126;6.878;2023-01-01T11:17:36;11.37;;;2.80;;
52102;SDS011;38101;53.126;6.878;2023-01-01T11:20:03;13.35;;;2.83;;
52102;SDS011;38101;53.126;6.878;2023-01-01T11:25:21;11.65;;;3.13;;
52102;SDS011;38101;53.126;6.878;2023-01-01T11:27:52;11.52;;;2.78;;
52102;SDS011;38101;53.126;6.878;2023-01-01T11:33:48;6.85;;;2.40;;
52102;SDS011;38101;53.126;6.878;2023-01-01T11:36:20;7.43;;;2.90;;
52102;SDS011;38101;53.126;6.878;2023-01-01T11:41:46;9.13;;;2.70;;
52102;SDS011;38101;53.126;6.878;2023-01-01T11:44:20;11.40;;;2.70;;
52102;SDS011;38101;53.126;6.878;2023-01-01T11:46:54;12.60;;;3.53;;
52102;SDS011;38101;53.126;6.878;2023-01-01T11:49:22;10.25;;;2.90;;
52102;SDS011;38101;53.126;6.878;2023-01-01T11:51:50;10.25;;;2.65;;
52102;SDS011;38101;53.126;6.878;2023-01-01T11:54:22;11.07;;;2.70;;
52102;SDS011;38101;53.126;6.878;2023-01-01T11:57:16;11.25;;;2.60;;
52102;SDS011;38101;53.126;6.878;2023-01-01T11:59:48;7.82;;;2.70;;
52102;SDS011;38101;53.126;6.878;2023-01-01T12:02:29;7.72;;;2.60;;
52102;SDS011;38101;53.126;6.878;2023-01-01T12:07:39;13.20;;;3.60;;
52102;SDS011;38101;53.126;6.878;2023-01-01T12:16:01;12.35;;;3.47;;
52102;SDS011;38101;53.126;6.878;2023-01-01T12:21:41;9.68;;;2.78;;
52102;SDS011;38101;53.126;6.878;2023-01-01T12:24:13;7.95;;;2.83;;
52102;SDS011;38101;53.126;6.878;2023-01-01T12:26:49;11.10;;;2.90;;
52102;SDS011;38101;53.126;6.878;2023-01-01T12:29:51;11.00;;;3.70;;
52102;SDS011;38101;53.126;6.878;2023-01-01T12:32:46;12.05;;;2.97;;
52102;SDS011;38101;53.126;6.878;2023-01-01T12:43:44;11.95;;;3.17;;
52102;SDS011;38101;53.126;6.878;2023-01-01T12:46:12;13.20;;;3.40;;
52102;SDS011;38101;53.126;6.878;2023-01-01T12:51:24;10.77;;;2.85;;
52102;SDS011;38101;53.126;6.878;2023-01-01T12:56:32;6.97;;;2.58;;
52102;SDS011;38101;53.126;6.878;2023-01-01T12:59:10;12.85;;;3.28;;
52102;SDS011;38101;53.126;6.878;2023-01-01T13:01:50;11.80;;;2.92;;
52102;SDS011;38101;53.126;6.878;2023-01-01T13:04:21;8.40;;;2.85;;
52102;SDS011;38101;53.126;6.878;2023-01-01T13:06:57;9.35;;;2.80;;
52102;SDS011;38101;53.126;6.878;2023-01-01T13:09:32;10.07;;;2.88;;
52102;SDS011;38101;53.126;6.878;2023-01-01T13:14:56;7.47;;;2.95;;
52102;SDS011;38101;53.126;6.878;2023-01-01T13:17:23;10.75;;;2.97;;
52102;SDS011;38101;53.126;6.878;2023-01-01T13:19:56;7.68;;;2.70;;
52102;SDS011;38101;53.126;6.878;2023-01-01T13:44:09;9.90;;;3.00;;
52102;SDS011;38101;53.126;6.878;2023-01-01T13:49:17;11.23;;;3.15;;
52102;SDS011;38101;53.126;6.878;2023-01-01T14:00:18;10.45;;;2.83;;
52102;SDS011;38101;53.126;6.878;2023-01-01T14:02:53;9.75;;;3.40;;
52102;SDS011;38101;53.126;6.878;2023-01-01T14:07:59;11.98;;;3.70;;
52102;SDS011;38101;53.126;6.878;2023-01-01T14:10:35;6.70;;;2.40;;
52102;SDS011;38101;53.126;6.878;2023-01-01T14:13:12;10.38;;;3.15;;
52102;SDS011;38101;53.126;6.878;2023-01-01T14:18:17;9.15;;;3.33;;
52102;SDS011;38101;53.126;6.878;2023-01-01T14:20:45;12.93;;;4.80;;
52102;SDS011;38101;53.126;6.878;2023-01-01T14:23:19;9.80;;;4.28;;
52102;SDS011;38101;53.126;6.878;2023-01-01T14:25:52;10.30;;;3.05;;
52102;SDS011;38101;53.126;6.878;2023-01-01T14:28:23;10.75;;;3.78;;
52102;SDS011;38101;53.126;6.878;2023-01-01T14:30:54;10.45;;;3.63;;
52102;SDS011;38101;53.126;6.878;2023-01-01T14:33:25;9.18;;;3.80;;
52102;SDS011;38101;53.126;6.878;2023-01-01T14:35:53;12.65;;;3.83;;
52102;SDS011;38101;53.126;6.878;2023-01-01T14:38:24;11.75;;;3.67;;
52102;SDS011;38101;53.126;6.878;2023-01-01T14:41:52;10.40;;;3.75;;
52102;SDS011;38101;53.126;6.878;2023-01-01T14:43:47;8.73;;;3.58;;
52102;SDS011;38101;53.126;6.878;2023-01-01T14:46:17;9.63;;;3.42;;
52102;SDS011;38101;53.126;6.878;2023-01-01T14:48:47;11.07;;;3.40;;
52102;SDS011;38101;53.126;6.878;2023-01-01T14:51:15;10.05;;;3.65;;
52102;SDS011;38101;53.126;6.878;2023-01-01T14:53:45;11.77;;;3.08;;
52102;SDS011;38101;53.126;6.878;2023-01-01T14:56:23;10.88;;;3.20;;
52102;SDS011;38101;53.126;6.878;2023-01-01T14:58:53;11.02;;;3.80;;
52102;SDS011;38101;53.126;6.878;2023-01-01T15:01:28;12.60;;;4.05;;
52102;SDS011;38101;53.126;6.878;2023-01-01T15:04:14;20.83;;;8.30;;
52102;SDS011;38101;53.126;6.878;2023-01-01T15:06:51;22.60;;;8.98;;
52102;SDS011;38101;53.126;6.878;2023-01-01T15:09:18;13.77;;;5.63;;
52102;SDS011;38101;53.126;6.878;2023-01-01T15:11:44;12.05;;;4.40;;
52102;SDS011;38101;53.126;6.878;2023-01-01T15:14:29;12.95;;;4.65;;
52102;SDS011;38101;53.126;6.878;2023-01-01T15:17:00;11.07;;;4.03;;
52102;SDS011;38101;53.126;6.878;2023-01-01T15:19:31;10.70;;;4.43;;
52102;SDS011;38101;53.126;6.878;2023-01-01T15:21:57;10.50;;;4.22;;
52102;SDS011;38101;53.126;6.878;2023-01-01T15:24:23;7.53;;;3.97;;
52102;SDS011;38101;53.126;6.878;2023-01-01T15:29:23;9.05;;;4.10;;
52102;SDS011;38101;53.126;6.878;2023-01-01T15:32:04;11.50;;;5.10;;
52102;SDS011;38101;53.126;6.878;2023-01-01T15:34:34;8.82;;;4.10;;
52102;SDS011;38101;53.126;6.878;2023-01-01T15:37:14;10.98;;;4.40;;
52102;SDS011;38101;53.126;6.878;2023-01-01T15:39:56;11.75;;;4.38;;
52102;SDS011;38101;53.126;6.878;2023-01-01T15:42:37;11.68;;;4.07;;
52102;SDS011;38101;53.126;6.878;2023-01-01T15:50:28;9.00;;;4.00;;
52102;SDS011;38101;53.126;6.878;2023-01-01T15:56:01;8.73;;;3.92;;
52102;SDS011;38101;53.126;6.878;2023-01-01T15:58:34;11.15;;;3.60;;
52102;SDS011;38101;53.126;6.878;2023-01-01T16:01:18;13.27;;;4.13;;
52102;SDS011;38101;53.126;6.878;2023-01-01T16:03:46;12.55;;;4.78;;
52102;SDS011;38101;53.126;6.878;2023-01-01T16:06:15;10.65;;;4.55;;
52102;SDS011;38101;53.126;6.878;2023-01-01T16:08:41;12.23;;;5.03;;
52102;SDS011;38101;53.126;6.878;2023-01-01T16:11:08;12.65;;;5.45;;
52102;SDS011;38101;53.126;6.878;2023-01-01T16:13:33;11.70;;;5.10;;
52102;SDS011;38101;53.126;6.878;2023-01-01T16:16:00;10.93;;;4.72;;
52102;SDS011;38101;53.126;6.878;2023-01-01T16:18:31;13.02;;;5.70;;
52102;SDS011;38101;53.126;6.878;2023-01-01T16:21:01;14.30;;;6.78;;
52102;SDS011;38101;53.126;6.878;2023-01-01T16:23:29;11.80;;;7.03;;
52102;SDS011;38101;53.126;6.878;2023-01-01T16:25:55;13.93;;;8.70;;
52102;SDS011;38101;53.126;6.878;2023-01-01T16:28:21;20.55;;;10.07;;
52102;SDS011;38101;53.126;6.878;2023-01-01T16:30:47;16.77;;;8.82;;
52102;SDS011;38101;53.126;6.878;2023-01-01T16:33:17;11.57;;;7.35;;
52102;SDS011;38101;53.126;6.878;2023-01-01T16:35:45;12.93;;;6.55;;
52102;SDS011;38101;53.126;6.878;2023-01-01T16:38:10;14.18;;;5.40;;
52102;SDS011;38101;53.126;6.878;2023-01-01T16:40:36;12.00;;;5.05;;
52102;SDS011;38101;53.126;6.878;2023-01-01T16:43:02;12.05;;;4.40;;
52102;SDS011;38101;53.126;6.878;2023-01-01T16:45:30;12.80;;;5.45;;
52102;SDS011;38101;53.126;6.878;2023-01-01T16:47:55;10.77;;;5.10;;
52102;SDS011;38101;53.126;6.878;2023-01-01T16:50:21;10.30;;;5.53;;
52102;SDS011;38101;53.126;6.878;2023-01-01T16:52:47;10.52;;;5.32;;
52102;SDS011;38101;53.126;6.878;2023-01-01T16:55:13;16.77;;;6.45;;
52102;SDS011;38101;53.126;6.878;2023-01-01T16:57:39;12.93;;;6.95;;
52102;SDS011;38101;53.126;6.878;2023-01-01T17:00:05;11.30;;;5.90;;
52102;SDS011;38101;53.126;6.878;2023-01-01T17:02:33;10.82;;;4.72;;
52102;SDS011;38101;53.126;6.878;2023-01-01T17:04:59;11.80;;;5.35;;
52102;SDS011;38101;53.126;6.878;2023-01-01T17:07:24;15.15;;;5.00;;
52102;SDS011;38101;53.126;6.878;2023-01-01T17:09:50;10.82;;;4.70;;
52102;SDS011;38101;53.126;6.878;2023-01-01T17:12:15;14.30;;;4.70;;
52102;SDS011;38101;53.126;6.878;2023-01-01T17:14:41;11.52;;;4.70;;
52102;SDS011;38101;53.126;6.878;2023-01-01T17:17:07;12.18;;;4.63;;